sensor_id;sensor_type;location;lat;lon;timestamp;P1;P2;P0
55518;PMS5003;41724;51.176;-0.708;2023-02-15T00:00:19;76;74;
55518;PMS5003;41724;51.176;-0.708;2023-02-15T00:02:47;85;76;
55518;PMS5003;41724;51.176;-0.708;2023-02-15T00:05:14;90;81;
55518;PMS5003;41724;51.176;-0.708;2023-02-15T00:07:41;88;82;
55518;PMS5003;41724;51.176;-0.708;2023-02-15T00:10:09;94;84;
55518;PMS5003;41724;51.176;-0.708;2023-02-15T00:12:36;95;90;
55518;PMS5003;41724;51.176;-0.708;2023-02-15T00:15:04;86;83;
55518;PMS5003;41724;51.176;-0.708;2023-02-15T00:17:31;91;86;
55518;PMS5003;41724;51.176;-0.708;2023-02-15T00:19:58;86;80;
55518;PMS5003;41724;51.176;-0.708;2023-02-15T00:22:25;83;80;
55518;PMS5003;41724;51.176;-0.708;2023-02-15T00:24:52;91;85;
55518;PMS5003;41724;51.176;-0.708;2023-02-15T00:27:20;94;89;
55518;PMS5003;41724;51.176;-0.708;2023-02-15T00:29:47;90;85;
55518;PMS5003;41724;51.176;-0.708;2023-02-15T00:32:14;84;76;
55518;PMS5003;41724;51.176;-0.708;2023-02-15T00:34:41;88;81;
55518;PMS5003;41724;51.176;-0.708;2023-02-15T00:37:09;88;84;
55518;PMS5003;41724;51.176;-0.708;2023-02-15T00:39:36;95;83;
55518;PMS5003;41724;51.176;-0.708;2023-02-15T00:42:04;84;76;
55518;PMS5003;41724;51.176;-0.708;2023-02-15T00:44:32;91;87;
55518;PMS5003;41724;51.176;-0.708;2023-02-15T00:46:59;80;76;
55518;PMS5003;41724;51.176;-0.708;2023-02-15T00:49:26;78;76;
55518;PMS5003;41724;51.176;-0.708;2023-02-15T00:51:53;76;72;
55518;PMS5003;41724;51.176;-0.708;2023-02-15T00:54:20;86;74;
55518;PMS5003;41724;51.176;-0.708;2023-02-15T00:56:47;78;71;
55518;PMS5003;41724;51.176;-0.708;2023-02-15T00:59:15;80;75;
55518;PMS5003;41724;51.176;-0.708;2023-02-15T01:01:42;74;71;
55518;PMS5003;41724;51.176;-0.708;2023-02-15T01:04:09;82;76;
55518;PMS5003;41724;51.176;-0.708;2023-02-15T01:06:36;81;75;
55518;PMS5003;41724;51.176;-0.708;2023-02-15T01:09:03;84;73;
55518;PMS5003;41724;51.176;-0.708;2023-02-15T01:11:30;79;76;
55518;PMS5003;41724;51.176;-0.708;2023-02-15T01:13:57;75;73;
55518;PMS5003;41724;51.176;-0.708;2023-02-15T01:16:25;75;72;
55518;PMS5003;41724;51.176;-0.708;2023-02-15T01:18:55;73;65;
55518;PMS5003;41724;51.176;-0.708;2023-02-15T01:21:23;78;74;
55518;PMS5003;41724;51.176;-0.708;2023-02-15T01:23:51;68;67;
55518;PMS5003;41724;51.176;-0.708;2023-02-15T01:26:18;77;71;
55518;PMS5003;41724;51.176;-0.708;2023-02-15T01:28:45;80;74;
55518;PMS5003;41724;51.176;-0.708;2023-02-15T01:31:14;71;66;
55518;PMS5003;41724;51.176;-0.708;2023-02-15T01:33:44;70;62;
55518;PMS5003;41724;51.176;-0.708;2023-02-15T01:36:13;69;64;
55518;PMS5003;41724;51.176;-0.708;2023-02-15T01:38:41;79;73;
55518;PMS5003;41724;51.176;-0.708;2023-02-15T01:41:08;75;71;
55518;PMS5003;41724;51.176;-0.708;2023-02-15T01:43:39;68;65;
55518;PMS5003;41724;51.176;-0.708;2023-02-15T01:46:07;68;67;
55518;PMS5003;41724;51.176;-0.708;2023-02-15T01:48:35;68;63;
55518;PMS5003;41724;51.176;-0.708;2023-02-15T01:51:11;71;66;
55518;PMS5003;41724;51.176;-0.708;2023-02-15T01:53:41;66;58;
55518;PMS5003;41724;51.176;-0.708;2023-02-15T01:56:16;66;63;
55518;PMS5003;41724;51.176;-0.708;2023-02-15T01:58:47;58;56;
55518;PMS5003;41724;51.176;-0.708;2023-02-15T02:01:17;56;55;
55518;PMS5003;41724;51.176;-0.708;2023-02-15T02:03:46;61;58;
55518;PMS5003;41724;51.176;-0.708;2023-02-15T02:06:23;60;57;
55518;PMS5003;41724;51.176;-0.708;2023-02-15T02:08:52;67;64;
55518;PMS5003;41724;51.176;-0.708;2023-02-15T02:11:20;69;66;
55518;PMS5003;41724;51.176;-0.708;2023-02-15T02:13:47;57;52;
55518;PMS5003;41724;51.176;-0.708;2023-02-15T02:16:18;60;57;
55518;PMS5003;41724;51.176;-0.708;2023-02-15T02:18:56;67;64;
55518;PMS5003;41724;51.176;-0.708;2023-02-15T02:21:40;67;63;
55518;PMS5003;41724;51.176;-0.708;2023-02-15T02:24:33;75;69;
55518;PMS5003;41724;51.176;-0.708;2023-02-15T02:27:21;72;67;
55518;PMS5003;41724;51.176;-0.708;2023-02-15T02:30:02;68;63;
55518;PMS5003;41724;51.176;-0.708;2023-02-15T02:32:50;61;59;
55518;PMS5003;41724;51.176;-0.708;2023-02-15T02:35:28;67;64;
55518;PMS5003;41724;51.176;-0.708;2023-02-15T02:38:03;69;66;
55518;PMS5003;41724;51.176;-0.708;2023-02-15T02:40:37;68;65;
55518;PMS5003;41724;51.176;-0.708;2023-02-15T02:43:15;71;66;
55518;PMS5003;41724;51.176;-0.708;2023-02-15T02:45:47;66;64;
55518;PMS5003;41724;51.176;-0.708;2023-02-15T02:48:20;63;58;
55518;PMS5003;41724;51.176;-0.708;2023-02-15T02:50:51;61;58;
55518;PMS5003;41724;51.176;-0.708;2023-02-15T02:53:17;63;58;
55518;PMS5003;41724;51.176;-0.708;2023-02-15T02:55:45;57;56;
55518;PMS5003;41724;51.176;-0.708;2023-02-15T02:58:17;53;53;
55518;PMS5003;41724;51.176;-0.708;2023-02-15T03:00:52;66;61;
55518;PMS5003;41724;51.176;-0.708;2023-02-15T03:03:22;50;49;
55518;PMS5003;41724;51.176;-0.708;2023-02-15T03:05:53;65;60;
55518;PMS5003;41724;51.176;-0.708;2023-02-15T03:08:26;65;61;
55518;PMS5003;41724;51.176;-0.708;2023-02-15T03:10:59;56;55;
55518;PMS5003;41724;51.176;-0.708;2023-02-15T03:13:29;57;55;
55518;PMS5003;41724;51.176;-0.708;2023-02-15T03:15:57;62;58;
55518;PMS5003;41724;51.176;-0.708;2023-02-15T03:18:28;55;52;
55518;PMS5003;41724;51.176;-0.708;2023-02-15T03:21:00;60;54;
55518;PMS5003;41724;51.176;-0.708;2023-02-15T03:23:29;57;56;
55518;PMS5003;41724;51.176;-0.708;2023-02-15T03:25:59;61;59;
55518;PMS5003;41724;51.176;-0.708;2023-02-15T03:28:29;72;67;
55518;PMS5003;41724;51.176;-0.708;2023-02-15T03:31:03;62;60;
55518;PMS5003;41724;51.176;-0.708;2023-02-15T03:33:33;74;69;
55518;PMS5003;41724;51.176;-0.708;2023-02-15T03:36:08;68;64;
55518;PMS5003;41724;51.176;-0.708;2023-02-15T03:38:44;81;75;
55518;PMS5003;41724;51.176;-0.708;2023-02-15T03:41:15;65;60;
55518;PMS5003;41724;51.176;-0.708;2023-02-15T03:43:47;66;61;
55518;PMS5003;41724;51.176;-0.708;2023-02-15T03:46:20;69;65;
55518;PMS5003;41724;51.176;-0.708;2023-02-15T03:48:51;70;63;
55518;PMS5003;41724;51.176;-0.708;2023-02-15T03:51:21;69;66;
55518;PMS5003;41724;51.176;-0.708;2023-02-15T03:53:52;70;68;
55518;PMS5003;41724;51.176;-0.708;2023-02-15T03:56:22;72;66;
55518;PMS5003;41724;51.176;-0.708;2023-02-15T03:58:50;79;73;
55518;PMS5003;41724;51.176;-0.708;2023-02-15T04:01:18;70;66;
55518;PMS5003;41724;51.176;-0.708;2023-02-15T04:03:54;67;61;
55518;PMS5003;41724;51.176;-0.708;2023-02-15T04:06:25;66;62;
55518;PMS5003;41724;51.176;-0.708;2023-02-15T04:08:53;71;68;
55518;PMS5003;41724;51.176;-0.708;2023-02-15T04:11:20;65;62;
55518;PMS5003;41724;51.176;-0.708;2023-02-15T04:13:47;62;61;
55518;PMS5003;41724;51.176;-0.708;2023-02-15T04:16:14;69;66;
55518;PMS5003;41724;51.176;-0.708;2023-02-15T04:18:42;69;66;
55518;PMS5003;41724;51.176;-0.708;2023-02-15T04:21:09;67;62;
55518;PMS5003;41724;51.176;-0.708;2023-02-15T04:23:36;64;61;
55518;PMS5003;41724;51.176;-0.708;2023-02-15T04:26:03;64;59;
55518;PMS5003;41724;51.176;-0.708;2023-02-15T04:28:31;72;61;
55518;PMS5003;41724;51.176;-0.708;2023-02-15T04:30:58;69;66;
55518;PMS5003;41724;51.176;-0.708;2023-02-15T04:33:26;72;65;
55518;PMS5003;41724;51.176;-0.708;2023-02-15T04:35:53;59;56;
55518;PMS5003;41724;51.176;-0.708;2023-02-15T04:38:20;64;62;
55518;PMS5003;41724;51.176;-0.708;2023-02-15T04:40:49;61;58;
55518;PMS5003;41724;51.176;-0.708;2023-02-15T04:43:16;67;59;
55518;PMS5003;41724;51.176;-0.708;2023-02-15T04:45:47;65;63;
55518;PMS5003;41724;51.176;-0.708;2023-02-15T04:48:15;57;53;
55518;PMS5003;41724;51.176;-0.708;2023-02-15T04:50:42;63;59;
55518;PMS5003;41724;51.176;-0.708;2023-02-15T04:53:09;60;56;
55518;PMS5003;41724;51.176;-0.708;2023-02-15T04:55:37;65;61;
55518;PMS5003;41724;51.176;-0.708;2023-02-15T04:58:05;65;63;
55518;PMS5003;41724;51.176;-0.708;2023-02-15T05:00:32;64;61;
55518;PMS5003;41724;51.176;-0.708;2023-02-15T05:02:59;70;68;
55518;PMS5003;41724;51.176;-0.708;2023-02-15T05:05:27;71;70;
55518;PMS5003;41724;51.176;-0.708;2023-02-15T05:07:53;75;67;
55518;PMS5003;41724;51.176;-0.708;2023-02-15T05:10:21;71;67;
55518;PMS5003;41724;51.176;-0.708;2023-02-15T05:12:48;66;64;
55518;PMS5003;41724;51.176;-0.708;2023-02-15T05:15:15;63;61;
55518;PMS5003;41724;51.176;-0.708;2023-02-15T05:17:42;65;63;
55518;PMS5003;41724;51.176;-0.708;2023-02-15T05:20:10;78;64;
55518;PMS5003;41724;51.176;-0.708;2023-02-15T05:22:37;69;67;
55518;PMS5003;41724;51.176;-0.708;2023-02-15T05:25:05;67;61;
55518;PMS5003;41724;51.176;-0.708;2023-02-15T05:27:32;65;61;
55518;PMS5003;41724;51.176;-0.708;2023-02-15T05:29:59;68;64;
55518;PMS5003;41724;51.176;-0.708;2023-02-15T05:32:27;70;68;
55518;PMS5003;41724;51.176;-0.708;2023-02-15T05:34:54;63;60;
55518;PMS5003;41724;51.176;-0.708;2023-02-15T05:37:21;63;60;
55518;PMS5003;41724;51.176;-0.708;2023-02-15T05:39:49;67;63;
55518;PMS5003;41724;51.176;-0.708;2023-02-15T05:42:16;69;67;
55518;PMS5003;41724;51.176;-0.708;2023-02-15T05:44:42;60;58;
55518;PMS5003;41724;51.176;-0.708;2023-02-15T05:47:10;64;59;
55518;PMS5003;41724;51.176;-0.708;2023-02-15T05:49:37;70;68;
55518;PMS5003;41724;51.176;-0.708;2023-02-15T05:52:04;83;77;
55518;PMS5003;41724;51.176;-0.708;2023-02-15T05:54:32;66;62;
55518;PMS5003;41724;51.176;-0.708;2023-02-15T05:56:59;59;58;
55518;PMS5003;41724;51.176;-0.708;2023-02-15T05:59:25;63;61;
55518;PMS5003;41724;51.176;-0.708;2023-02-15T06:01:52;71;63;
55518;PMS5003;41724;51.176;-0.708;2023-02-15T06:04:19;62;61;
55518;PMS5003;41724;51.176;-0.708;2023-02-15T06:06:47;70;61;
55518;PMS5003;41724;51.176;-0.708;2023-02-15T06:09:14;76;69;
55518;PMS5003;41724;51.176;-0.708;2023-02-15T06:11:41;77;70;
55518;PMS5003;41724;51.176;-0.708;2023-02-15T06:14:08;72;67;
55518;PMS5003;41724;51.176;-0.708;2023-02-15T06:16:36;76;71;
55518;PMS5003;41724;51.176;-0.708;2023-02-15T06:19:03;62;61;
55518;PMS5003;41724;51.176;-0.708;2023-02-15T06:21:31;75;67;
55518;PMS5003;41724;51.176;-0.708;2023-02-15T06:23:58;62;59;
55518;PMS5003;41724;51.176;-0.708;2023-02-15T06:26:25;76;67;
55518;PMS5003;41724;51.176;-0.708;2023-02-15T06:28:52;66;64;
55518;PMS5003;41724;51.176;-0.708;2023-02-15T06:31:19;75;63;
55518;PMS5003;41724;51.176;-0.708;2023-02-15T06:33:46;75;66;
55518;PMS5003;41724;51.176;-0.708;2023-02-15T06:36:14;73;65;
55518;PMS5003;41724;51.176;-0.708;2023-02-15T06:38:41;77;71;
55518;PMS5003;41724;51.176;-0.708;2023-02-15T06:41:09;73;64;
55518;PMS5003;41724;51.176;-0.708;2023-02-15T06:43:36;63;61;
55518;PMS5003;41724;51.176;-0.708;2023-02-15T06:46:04;76;69;
55518;PMS5003;41724;51.176;-0.708;2023-02-15T06:48:31;68;63;
55518;PMS5003;41724;51.176;-0.708;2023-02-15T06:50:59;75;69;
55518;PMS5003;41724;51.176;-0.708;2023-02-15T06:53:26;72;68;
55518;PMS5003;41724;51.176;-0.708;2023-02-15T06:55:59;72;69;
55518;PMS5003;41724;51.176;-0.708;2023-02-15T06:58:26;76;71;
55518;PMS5003;41724;51.176;-0.708;2023-02-15T07:00:53;71;66;
55518;PMS5003;41724;51.176;-0.708;2023-02-15T07:03:21;62;62;
55518;PMS5003;41724;51.176;-0.708;2023-02-15T07:05:48;67;66;
55518;PMS5003;41724;51.176;-0.708;2023-02-15T07:08:15;75;73;
55518;PMS5003;41724;51.176;-0.708;2023-02-15T07:10:43;71;66;
55518;PMS5003;41724;51.176;-0.708;2023-02-15T07:13:10;67;67;
55518;PMS5003;41724;51.176;-0.708;2023-02-15T07:15:37;73;70;
55518;PMS5003;41724;51.176;-0.708;2023-02-15T07:18:04;71;67;
55518;PMS5003;41724;51.176;-0.708;2023-02-15T07:20:31;76;69;
55518;PMS5003;41724;51.176;-0.708;2023-02-15T07:22:58;81;77;
55518;PMS5003;41724;51.176;-0.708;2023-02-15T07:25:26;80;71;
55518;PMS5003;41724;51.176;-0.708;2023-02-15T07:27:55;82;79;
55518;PMS5003;41724;51.176;-0.708;2023-02-15T07:30:23;74;72;
55518;PMS5003;41724;51.176;-0.708;2023-02-15T07:32:50;80;78;
55518;PMS5003;41724;51.176;-0.708;2023-02-15T07:35:21;80;76;
55518;PMS5003;41724;51.176;-0.708;2023-02-15T07:37:49;80;76;
55518;PMS5003;41724;51.176;-0.708;2023-02-15T07:40:16;80;75;
55518;PMS5003;41724;51.176;-0.708;2023-02-15T07:42:43;83;75;
55518;PMS5003;41724;51.176;-0.708;2023-02-15T07:45:11;79;74;
55518;PMS5003;41724;51.176;-0.708;2023-02-15T07:47:38;73;71;
55518;PMS5003;41724;51.176;-0.708;2023-02-15T07:50:06;77;72;
55518;PMS5003;41724;51.176;-0.708;2023-02-15T07:52:33;78;74;
55518;PMS5003;41724;51.176;-0.708;2023-02-15T07:55:00;90;83;
55518;PMS5003;41724;51.176;-0.708;2023-02-15T07:57:28;87;83;
55518;PMS5003;41724;51.176;-0.708;2023-02-15T07:59:55;101;91;
55518;PMS5003;41724;51.176;-0.708;2023-02-15T08:02:23;110;96;
55518;PMS5003;41724;51.176;-0.708;2023-02-15T08:04:49;112;96;
55518;PMS5003;41724;51.176;-0.708;2023-02-15T08:07:17;81;80;
55518;PMS5003;41724;51.176;-0.708;2023-02-15T08:09:44;89;87;
55518;PMS5003;41724;51.176;-0.708;2023-02-15T08:12:11;92;82;
55518;PMS5003;41724;51.176;-0.708;2023-02-15T08:14:38;88;83;
55518;PMS5003;41724;51.176;-0.708;2023-02-15T08:17:06;84;82;
55518;PMS5003;41724;51.176;-0.708;2023-02-15T08:19:33;105;94;
55518;PMS5003;41724;51.176;-0.708;2023-02-15T08:22:01;102;91;
55518;PMS5003;41724;51.176;-0.708;2023-02-15T08:24:31;111;97;
55518;PMS5003;41724;51.176;-0.708;2023-02-15T08:27:00;123;106;
55518;PMS5003;41724;51.176;-0.708;2023-02-15T08:29:27;122;110;
55518;PMS5003;41724;51.176;-0.708;2023-02-15T08:31:56;113;99;
55518;PMS5003;41724;51.176;-0.708;2023-02-15T08:34:25;113;95;
55518;PMS5003;41724;51.176;-0.708;2023-02-15T08:36:52;124;112;
55518;PMS5003;41724;51.176;-0.708;2023-02-15T08:39:19;122;106;
55518;PMS5003;41724;51.176;-0.708;2023-02-15T08:41:47;105;99;
55518;PMS5003;41724;51.176;-0.708;2023-02-15T08:44:16;113;94;
55518;PMS5003;41724;51.176;-0.708;2023-02-15T08:46:44;107;97;
55518;PMS5003;41724;51.176;-0.708;2023-02-15T08:49:14;106;95;
55518;PMS5003;41724;51.176;-0.708;2023-02-15T08:51:43;102;91;
55518;PMS5003;41724;51.176;-0.708;2023-02-15T08:54:13;100;93;
55518;PMS5003;41724;51.176;-0.708;2023-02-15T08:56:43;114;100;
55518;PMS5003;41724;51.176;-0.708;2023-02-15T08:59:12;95;88;
55518;PMS5003;41724;51.176;-0.708;2023-02-15T09:01:40;106;93;
55518;PMS5003;41724;51.176;-0.708;2023-02-15T09:04:09;99;92;
55518;PMS5003;41724;51.176;-0.708;2023-02-15T09:06:36;99;93;
55518;PMS5003;41724;51.176;-0.708;2023-02-15T09:09:05;91;89;
55518;PMS5003;41724;51.176;-0.708;2023-02-15T09:11:33;100;95;
55518;PMS5003;41724;51.176;-0.708;2023-02-15T09:14:03;98;89;
55518;PMS5003;41724;51.176;-0.708;2023-02-15T09:16:31;90;87;
55518;PMS5003;41724;51.176;-0.708;2023-02-15T09:19:00;99;90;
55518;PMS5003;41724;51.176;-0.708;2023-02-15T09:21:28;119;107;
55518;PMS5003;41724;51.176;-0.708;2023-02-15T09:23:56;94;88;
55518;PMS5003;41724;51.176;-0.708;2023-02-15T09:26:25;107;98;
55518;PMS5003;41724;51.176;-0.708;2023-02-15T09:28:55;102;92;
55518;PMS5003;41724;51.176;-0.708;2023-02-15T09:31:25;107;101;
55518;PMS5003;41724;51.176;-0.708;2023-02-15T09:33:53;112;105;
55518;PMS5003;41724;51.176;-0.708;2023-02-15T09:36:22;115;105;
55518;PMS5003;41724;51.176;-0.708;2023-02-15T09:38:53;103;98;
55518;PMS5003;41724;51.176;-0.708;2023-02-15T09:41:27;101;95;
55518;PMS5003;41724;51.176;-0.708;2023-02-15T09:44:11;107;96;
55518;PMS5003;41724;51.176;-0.708;2023-02-15T09:46:47;113;105;
55518;PMS5003;41724;51.176;-0.708;2023-02-15T09:49:30;108;106;
55518;PMS5003;41724;51.176;-0.708;2023-02-15T09:52:09;111;103;
55518;PMS5003;41724;51.176;-0.708;2023-02-15T09:54:52;113;107;
55518;PMS5003;41724;51.176;-0.708;2023-02-15T09:57:36;107;102;
55518;PMS5003;41724;51.176;-0.708;2023-02-15T10:00:12;106;101;
55518;PMS5003;41724;51.176;-0.708;2023-02-15T10:02:52;109;99;
55518;PMS5003;41724;51.176;-0.708;2023-02-15T10:05:34;114;107;
55518;PMS5003;41724;51.176;-0.708;2023-02-15T10:08:18;106;101;
55518;PMS5003;41724;51.176;-0.708;2023-02-15T10:11:01;102;98;
55518;PMS5003;41724;51.176;-0.708;2023-02-15T10:13:36;99;90;
55518;PMS5003;41724;51.176;-0.708;2023-02-15T10:16:13;93;87;
55518;PMS5003;41724;51.176;-0.708;2023-02-15T10:18:54;96;86;
55518;PMS5003;41724;51.176;-0.708;2023-02-15T10:21:34;88;86;
55518;PMS5003;41724;51.176;-0.708;2023-02-15T10:24:14;84;78;
55518;PMS5003;41724;51.176;-0.708;2023-02-15T10:26:53;71;69;
55518;PMS5003;41724;51.176;-0.708;2023-02-15T10:29:30;69;65;
55518;PMS5003;41724;51.176;-0.708;2023-02-15T10:32:05;62;61;
55518;PMS5003;41724;51.176;-0.708;2023-02-15T10:34:45;56;52;
55518;PMS5003;41724;51.176;-0.708;2023-02-15T10:37:23;56;54;
55518;PMS5003;41724;51.176;-0.708;2023-02-15T10:40:04;53;52;
55518;PMS5003;41724;51.176;-0.708;2023-02-15T10:42:39;55;53;
55518;PMS5003;41724;51.176;-0.708;2023-02-15T10:45:24;52;51;
55518;PMS5003;41724;51.176;-0.708;2023-02-15T10:48:06;51;48;
55518;PMS5003;41724;51.176;-0.708;2023-02-15T10:50:55;51;48;
55518;PMS5003;41724;51.176;-0.708;2023-02-15T10:53:28;49;48;
55518;PMS5003;41724;51.176;-0.708;2023-02-15T10:56:09;51;46;
55518;PMS5003;41724;51.176;-0.708;2023-02-15T10:58:49;43;38;
55518;PMS5003;41724;51.176;-0.708;2023-02-15T11:01:28;48;47;
55518;PMS5003;41724;51.176;-0.708;2023-02-15T11:05:08;47;46;
55518;PMS5003;41724;51.176;-0.708;2023-02-15T11:07:52;45;42;
55518;PMS5003;41724;51.176;-0.708;2023-02-15T11:10:27;40;39;
55518;PMS5003;41724;51.176;-0.708;2023-02-15T11:13:02;40;37;
55518;PMS5003;41724;51.176;-0.708;2023-02-15T11:15:36;48;47;
55518;PMS5003;41724;51.176;-0.708;2023-02-15T11:18:09;51;50;
55518;PMS5003;41724;51.176;-0.708;2023-02-15T11:20:42;52;50;
55518;PMS5003;41724;51.176;-0.708;2023-02-15T11:23:16;54;51;
55518;PMS5003;41724;51.176;-0.708;2023-02-15T11:25:44;44;43;
55518;PMS5003;41724;51.176;-0.708;2023-02-15T11:28:18;44;44;
55518;PMS5003;41724;51.176;-0.708;2023-02-15T11:30:50;38;36;
55518;PMS5003;41724;51.176;-0.708;2023-02-15T11:33:22;42;41;
55518;PMS5003;41724;51.176;-0.708;2023-02-15T11:35:55;42;40;
55518;PMS5003;41724;51.176;-0.708;2023-02-15T11:38:31;34;34;
55518;PMS5003;41724;51.176;-0.708;2023-02-15T11:40:59;37;37;
55518;PMS5003;41724;51.176;-0.708;2023-02-15T11:43:31;40;38;
55518;PMS5003;41724;51.176;-0.708;2023-02-15T11:46:01;41;40;
55518;PMS5003;41724;51.176;-0.708;2023-02-15T11:48:29;38;38;
55518;PMS5003;41724;51.176;-0.708;2023-02-15T11:50:58;41;39;
55518;PMS5003;41724;51.176;-0.708;2023-02-15T11:53:26;39;39;
55518;PMS5003;41724;51.176;-0.708;2023-02-15T11:55:58;44;42;
55518;PMS5003;41724;51.176;-0.708;2023-02-15T11:58:28;32;32;
55518;PMS5003;41724;51.176;-0.708;2023-02-15T12:01:07;30;30;
55518;PMS5003;41724;51.176;-0.708;2023-02-15T12:03:41;32;31;
55518;PMS5003;41724;51.176;-0.708;2023-02-15T12:06:15;29;28;
55518;PMS5003;41724;51.176;-0.708;2023-02-15T12:08:57;34;31;
55518;PMS5003;41724;51.176;-0.708;2023-02-15T12:11:33;35;34;
55518;PMS5003;41724;51.176;-0.708;2023-02-15T12:14:04;37;34;
55518;PMS5003;41724;51.176;-0.708;2023-02-15T12:16:34;46;42;
55518;PMS5003;41724;51.176;-0.708;2023-02-15T12:19:12;37;35;
55518;PMS5003;41724;51.176;-0.708;2023-02-15T12:21:58;29;28;
55518;PMS5003;41724;51.176;-0.708;2023-02-15T12:24:30;32;30;
55518;PMS5003;41724;51.176;-0.708;2023-02-15T12:27:01;33;30;
55518;PMS5003;41724;51.176;-0.708;2023-02-15T12:29:34;31;31;
55518;PMS5003;41724;51.176;-0.708;2023-02-15T12:32:09;32;29;
55518;PMS5003;41724;51.176;-0.708;2023-02-15T12:34:44;41;39;
55518;PMS5003;41724;51.176;-0.708;2023-02-15T12:37:16;32;31;
55518;PMS5003;41724;51.176;-0.708;2023-02-15T12:39:55;37;34;
55518;PMS5003;41724;51.176;-0.708;2023-02-15T12:42:23;33;33;
55518;PMS5003;41724;51.176;-0.708;2023-02-15T12:44:53;35;33;
55518;PMS5003;41724;51.176;-0.708;2023-02-15T12:47:22;32;32;
55518;PMS5003;41724;51.176;-0.708;2023-02-15T12:50:04;35;34;
55518;PMS5003;41724;51.176;-0.708;2023-02-15T12:52:34;32;30;
55518;PMS5003;41724;51.176;-0.708;2023-02-15T12:55:09;33;32;
55518;PMS5003;41724;51.176;-0.708;2023-02-15T12:57:43;27;26;
55518;PMS5003;41724;51.176;-0.708;2023-02-15T13:00:24;26;26;
55518;PMS5003;41724;51.176;-0.708;2023-02-15T13:02:54;25;24;
55518;PMS5003;41724;51.176;-0.708;2023-02-15T13:05:25;29;29;
55518;PMS5003;41724;51.176;-0.708;2023-02-15T13:07:57;36;32;
55518;PMS5003;41724;51.176;-0.708;2023-02-15T13:10:27;32;30;
55518;PMS5003;41724;51.176;-0.708;2023-02-15T13:12:57;22;21;
55518;PMS5003;41724;51.176;-0.708;2023-02-15T13:15:26;30;28;
55518;PMS5003;41724;51.176;-0.708;2023-02-15T13:17:57;28;26;
55518;PMS5003;41724;51.176;-0.708;2023-02-15T13:20:25;22;22;
55518;PMS5003;41724;51.176;-0.708;2023-02-15T13:22:55;27;24;
55518;PMS5003;41724;51.176;-0.708;2023-02-15T13:25:30;24;22;
55518;PMS5003;41724;51.176;-0.708;2023-02-15T13:28:04;26;24;
55518;PMS5003;41724;51.176;-0.708;2023-02-15T13:30:34;23;21;
55518;PMS5003;41724;51.176;-0.708;2023-02-15T13:33:05;24;22;
55518;PMS5003;41724;51.176;-0.708;2023-02-15T13:35:37;33;28;
55518;PMS5003;41724;51.176;-0.708;2023-02-15T13:39:21;27;23;
55518;PMS5003;41724;51.176;-0.708;2023-02-15T13:41:58;22;20;
55518;PMS5003;41724;51.176;-0.708;2023-02-15T13:44:40;29;28;
55518;PMS5003;41724;51.176;-0.708;2023-02-15T13:47:36;25;25;
55518;PMS5003;41724;51.176;-0.708;2023-02-15T13:50:17;25;23;
55518;PMS5003;41724;51.176;-0.708;2023-02-15T13:52:55;29;26;
55518;PMS5003;41724;51.176;-0.708;2023-02-15T13:55:36;26;26;
55518;PMS5003;41724;51.176;-0.708;2023-02-15T13:58:34;30;29;
55518;PMS5003;41724;51.176;-0.708;2023-02-15T14:01:22;26;25;
55518;PMS5003;41724;51.176;-0.708;2023-02-15T14:04:07;29;29;
55518;PMS5003;41724;51.176;-0.708;2023-02-15T14:06:52;29;28;
55518;PMS5003;41724;51.176;-0.708;2023-02-15T14:09:40;25;23;
55518;PMS5003;41724;51.176;-0.708;2023-02-15T14:12:23;20;20;
55518;PMS5003;41724;51.176;-0.708;2023-02-15T14:15:05;22;21;
55518;PMS5003;41724;51.176;-0.708;2023-02-15T14:17:43;24;22;
55518;PMS5003;41724;51.176;-0.708;2023-02-15T14:20:20;25;23;
55518;PMS5003;41724;51.176;-0.708;2023-02-15T14:22:53;22;20;
55518;PMS5003;41724;51.176;-0.708;2023-02-15T14:25:28;20;20;
55518;PMS5003;41724;51.176;-0.708;2023-02-15T14:28:05;20;20;
55518;PMS5003;41724;51.176;-0.708;2023-02-15T14:30:38;22;21;
55518;PMS5003;41724;51.176;-0.708;2023-02-15T14:33:08;22;21;
55518;PMS5003;41724;51.176;-0.708;2023-02-15T14:35:45;23;22;
55518;PMS5003;41724;51.176;-0.708;2023-02-15T14:38:13;25;24;
55518;PMS5003;41724;51.176;-0.708;2023-02-15T14:41:03;18;18;
55518;PMS5003;41724;51.176;-0.708;2023-02-15T14:43:45;22;20;
55518;PMS5003;41724;51.176;-0.708;2023-02-15T14:46:21;19;19;
55518;PMS5003;41724;51.176;-0.708;2023-02-15T14:48:57;16;16;
55518;PMS5003;41724;51.176;-0.708;2023-02-15T14:52:05;21;20;
55518;PMS5003;41724;51.176;-0.708;2023-02-15T14:55:06;23;21;
55518;PMS5003;41724;51.176;-0.708;2023-02-15T14:57:34;22;22;
55518;PMS5003;41724;51.176;-0.708;2023-02-15T15:00:04;20;20;
55518;PMS5003;41724;51.176;-0.708;2023-02-15T15:03:09;20;19;
55518;PMS5003;41724;51.176;-0.708;2023-02-15T15:05:46;22;21;
55518;PMS5003;41724;51.176;-0.708;2023-02-15T15:08:21;21;20;
55518;PMS5003;41724;51.176;-0.708;2023-02-15T15:10:53;24;23;
55518;PMS5003;41724;51.176;-0.708;2023-02-15T15:13:52;28;26;
55518;PMS5003;41724;51.176;-0.708;2023-02-15T15:16:27;21;19;
55518;PMS5003;41724;51.176;-0.708;2023-02-15T15:18:59;24;23;
55518;PMS5003;41724;51.176;-0.708;2023-02-15T15:22:02;28;27;
55518;PMS5003;41724;51.176;-0.708;2023-02-15T15:24:46;25;25;
55518;PMS5003;41724;51.176;-0.708;2023-02-15T15:27:48;27;25;
55518;PMS5003;41724;51.176;-0.708;2023-02-15T15:30:49;25;24;
55518;PMS5003;41724;51.176;-0.708;2023-02-15T15:33:30;25;24;
55518;PMS5003;41724;51.176;-0.708;2023-02-15T15:36:41;26;26;
55518;PMS5003;41724;51.176;-0.708;2023-02-15T15:39:38;24;24;
55518;PMS5003;41724;51.176;-0.708;2023-02-15T15:42:29;24;23;
55518;PMS5003;41724;51.176;-0.708;2023-02-15T15:45:21;24;24;
55518;PMS5003;41724;51.176;-0.708;2023-02-15T15:48:06;22;22;
55518;PMS5003;41724;51.176;-0.708;2023-02-15T15:50:50;25;24;
55518;PMS5003;41724;51.176;-0.708;2023-02-15T15:53:19;21;19;
55518;PMS5003;41724;51.176;-0.708;2023-02-15T15:55:49;17;17;
55518;PMS5003;41724;51.176;-0.708;2023-02-15T15:58:21;17;17;
55518;PMS5003;41724;51.176;-0.708;2023-02-15T16:00:50;17;17;
55518;PMS5003;41724;51.176;-0.708;2023-02-15T16:03:23;19;19;
55518;PMS5003;41724;51.176;-0.708;2023-02-15T16:05:51;14;13;
55518;PMS5003;41724;51.176;-0.708;2023-02-15T16:08:29;19;17;
55518;PMS5003;41724;51.176;-0.708;2023-02-15T16:10:58;20;19;
55518;PMS5003;41724;51.176;-0.708;2023-02-15T16:13:26;17;16;
55518;PMS5003;41724;51.176;-0.708;2023-02-15T16:15:54;14;14;
55518;PMS5003;41724;51.176;-0.708;2023-02-15T16:18:23;14;14;
55518;PMS5003;41724;51.176;-0.708;2023-02-15T16:20:54;18;18;
55518;PMS5003;41724;51.176;-0.708;2023-02-15T16:23:30;16;16;
55518;PMS5003;41724;51.176;-0.708;2023-02-15T16:26:18;16;16;
55518;PMS5003;41724;51.176;-0.708;2023-02-15T16:29:00;20;17;
55518;PMS5003;41724;51.176;-0.708;2023-02-15T16:31:27;22;21;
55518;PMS5003;41724;51.176;-0.708;2023-02-15T16:33:54;21;20;